LIBN/LCC METAR and TAF weather

Enter ICAO airport designator
Station Type Date Time Source
LIBN METAR 2019/12/14 10:55 UTC NOAA

LIBN 141055Z 33019KT 9999 FEW020 BKN030 14/10 Q0998 RMK BKN VIS MIN 9999 WIND THR14 33016G26KT WIND THR32 32021KT BLU


Station Type Date Time Source
LIBN Decoded METAR 2019/12/14 10:55 UTC NOAA

Lecce, Italy (LIBN) 40-14N 018-09E 61M
Dec 14, 2019 - 05:55 AM EST / 2019.12.14 1055 UTC
Wind: from the NNW (330 degrees) at 22 MPH (19 KT):0
Visibility: greater than 7 mile(s):0
Sky conditions: mostly cloudy
Temperature: 57 F (14 C)
Dew Point: 50 F (10 C)
Relative Humidity: 76%
Pressure (altimeter): 29.47 in. Hg (0998 hPa)
ob: LIBN 141055Z 33019KT 9999 FEW020 BKN030 14/10 Q0998 RMK BKN VIS MIN 9999 WIND THR14 33016G26KT WIND THR32 32021KT BLU
cycle: 11

Station Type Date Time Source
LIBN TAF 2019/10/29 12:24 UTC NOAA

TAF TAF LIBN 291100Z 2912/2924 20005KT 9999 FEW025
BECMG 2917/2918 3000 BR

Example: see airport list